Time;durP1;ratioP1;P1;durP2;ratioP2;P2;SDS_P1;SDS_P2;PMS_P1;PMS_P2;Temp;Humidity;BMP_temperature;BMP_pressure;BME280_temperature;BME280_humidity;BME280_pressure;Samples;Min_cycle;Max_cycle;Signal;HPM_P1;HPM_P2
2023/10/02 00:05:07;;;;;;;11.67;9.00;;;19.30;82.60;;;;;;4983259;28;20213;-64
2023/10/02 00:07:36;;;;;;;9.67;8.67;;;19.30;82.40;;;;;;4985792;28;20215;-65
2023/10/02 00:10:05;;;;;;;10.37;8.30;;;19.30;82.20;;;;;;4982148;28;20215;-65
2023/10/02 00:12:34;;;;;;;15.13;8.87;;;19.20;82.00;;;;;;4974122;28;20216;-65
2023/10/02 00:15:13;;;;;;;10.00;9.10;;;19.20;81.70;;;;;;4979830;28;20209;-64
2023/10/02 00:17:44;;;;;;;11.70;9.03;;;19.20;81.60;;;;;;4981141;28;20203;-65
2023/10/02 00:20:21;;;;;;;11.00;9.33;;;19.20;81.60;;;;;;4982376;28;20211;-64
2023/10/02 00:22:50;;;;;;;13.50;10.20;;;19.10;81.50;;;;;;4981337;28;20216;-64
2023/10/02 00:25:20;;;;;;;12.03;9.50;;;19.10;81.70;;;;;;4992678;28;20631;-65
2023/10/02 00:27:51;;;;;;;11.33;9.13;;;19.10;81.70;;;;;;4976979;28;20707;-65
2023/10/02 00:30:21;;;;;;;10.13;8.50;;;19.10;81.90;;;;;;4976521;28;20200;-65
2023/10/02 00:32:50;;;;;;;11.37;9.57;;;19.10;81.90;;;;;;4980780;28;20559;-65
2023/10/02 00:35:22;;;;;;;12.53;10.27;;;19.00;81.90;;;;;;4978279;28;20228;-64
2023/10/02 00:37:52;;;;;;;12.10;10.77;;;19.00;81.80;;;;;;4976681;28;20593;-65
2023/10/02 00:40:22;;;;;;;12.37;10.20;;;19.00;81.60;;;;;;4979211;28;20281;-65
2023/10/02 00:43:34;;;;;;;11.27;10.17;;;19.00;81.40;;;;;;4976943;28;20689;-64
2023/10/02 00:46:01;;;;;;;14.37;10.47;;;18.90;81.40;;;;;;4974526;28;20235;-65
2023/10/02 00:48:28;;;;;;;13.73;10.73;;;18.90;81.40;;;;;;4979973;28;20208;-65
2023/10/02 00:51:05;;;;;;;13.50;10.57;;;18.90;81.60;;;;;;4981334;28;20210;-65
2023/10/02 00:53:38;;;;;;;12.20;10.87;;;18.90;81.70;;;;;;4981382;28;20196;-66
2023/10/02 00:56:19;;;;;;;14.57;11.57;;;18.90;81.80;;;;;;4979597;28;20687;-65
2023/10/02 00:58:55;;;;;;;13.60;11.80;;;18.90;81.80;;;;;;4974861;28;20203;-65
2023/10/02 01:01:24;;;;;;;15.03;11.20;;;18.80;81.70;;;;;;4978334;28;20211;-65
2023/10/02 01:04:08;;;;;;;12.70;10.53;;;18.80;81.90;;;;;;4974553;28;20200;-65
2023/10/02 01:09:27;;;;;;;12.33;11.13;;;18.70;82.20;;;;;;4991466;28;20653;-65
2023/10/02 01:11:59;;;;;;;14.30;11.93;;;18.70;82.30;;;;;;4978808;28;20218;-65
2023/10/02 01:17:14;;;;;;;13.33;11.93;;;18.60;82.60;;;;;;4979522;28;20279;-65
2023/10/02 01:19:53;;;;;;;14.27;10.63;;;18.60;82.70;;;;;;4977441;28;20217;-65
2023/10/02 01:22:28;;;;;;;13.93;11.63;;;18.60;82.80;;;;;;4980713;28;20683;-64
2023/10/02 01:25:32;;;;;;;19.97;13.33;;;18.50;82.90;;;;;;4972567;28;20214;-64
2023/10/02 01:27:51;;;;;;;14.23;12.77;;;18.50;83.10;;;;;;4976728;28;20770;-65
2023/10/02 01:30:21;;;;;;;18.50;14.00;;;18.40;83.30;;;;;;4973244;28;20207;-65
2023/10/02 01:33:06;;;;;;;15.37;13.23;;;18.40;83.40;;;;;;4975613;28;20220;-65
2023/10/02 01:35:36;;;;;;;21.67;13.73;;;18.40;83.50;;;;;;4993718;28;20215;-65
2023/10/02 01:38:29;;;;;;;15.60;13.10;;;18.30;83.60;;;;;;4979802;28;20251;-65
2023/10/02 01:41:04;;;;;;;19.00;14.73;;;18.30;83.80;;;;;;4981999;28;20645;-65
2023/10/02 01:43:38;;;;;;;17.87;14.03;;;18.30;83.70;;;;;;4975081;28;20200;-65
2023/10/02 01:46:07;;;;;;;20.33;14.20;;;18.30;83.80;;;;;;4973118;28;20224;-65
2023/10/02 01:48:44;;;;;;;18.33;15.37;;;18.30;83.80;;;;;;4979399;28;20282;-64
2023/10/02 01:51:29;;;;;;;16.63;14.37;;;18.30;83.80;;;;;;4993386;28;20221;-64
2023/10/02 01:54:15;;;;;;;18.50;14.50;;;18.30;83.80;;;;;;4978296;28;20209;-65
2023/10/02 01:56:47;;;;;;;17.90;14.93;;;18.30;83.70;;;;;;4983189;28;20211;-64
2023/10/02 01:59:19;;;;;;;19.23;15.50;;;18.30;83.50;;;;;;4988183;28;20223;-65
2023/10/02 02:01:55;;;;;;;17.40;15.20;;;18.30;83.40;;;;;;4993967;28;20681;-65
2023/10/02 02:04:23;;;;;;;18.43;15.90;;;18.30;83.40;;;;;;4974318;28;20211;-64
2023/10/02 02:06:56;;;;;;;19.37;15.67;;;18.30;83.40;;;;;;4979696;28;20263;-65
2023/10/02 02:09:33;;;;;;;16.03;14.33;;;18.30;83.50;;;;;;4981845;28;20226;-64
2023/10/02 02:12:10;;;;;;;17.33;14.47;;;18.30;83.50;;;;;;4976032;28;20203;-64
2023/10/02 02:14:51;;;;;;;17.87;16.07;;;18.30;83.50;;;;;;4987081;28;20204;-64
2023/10/02 02:17:20;;;;;;;17.40;15.60;;;18.30;83.50;;;;;;4991409;28;20239;-64
2023/10/02 02:19:52;;;;;;;15.87;14.27;;;18.30;83.30;;;;;;4972696;28;20301;-64
2023/10/02 02:22:26;;;;;;;16.37;14.60;;;18.20;83.30;;;;;;4980068;28;20263;-65
2023/10/02 02:25:00;;;;;;;16.17;14.57;;;18.20;83.40;;;;;;4980405;28;20199;-65
2023/10/02 02:27:27;;;;;;;17.00;15.23;;;18.20;83.50;;;;;;4994572;28;20226;-64
2023/10/02 02:29:56;;;;;;;17.03;15.30;;;18.10;83.50;;;;;;4984028;28;20202;-64
2023/10/02 02:32:44;;;;;;;19.83;15.00;;;18.10;83.70;;;;;;4975944;28;20587;-65
2023/10/02 02:35:14;;;;;;;18.03;14.80;;;18.10;83.70;;;;;;4979520;28;20225;-64
2023/10/02 02:37:43;;;;;;;17.43;14.07;;;18.10;83.80;;;;;;4995930;28;20245;-65
2023/10/02 02:40:25;;;;;;;19.00;15.87;;;18.00;83.80;;;;;;4985210;28;20202;-64
2023/10/02 02:42:53;;;;;;;15.77;14.13;;;18.00;83.90;;;;;;4985171;28;20222;-64
2023/10/02 02:45:28;;;;;;;16.00;13.87;;;18.00;84.00;;;;;;4999549;28;20861;-65
2023/10/02 02:48:04;;;;;;;17.97;15.17;;;18.00;84.20;;;;;;4975151;28;20214;-64
2023/10/02 02:50:41;;;;;;;18.27;14.47;;;18.00;84.30;;;;;;4986686;28;20212;-65
2023/10/02 02:53:17;;;;;;;15.67;13.90;;;18.00;84.30;;;;;;4980601;28;20200;-65
2023/10/02 02:55:45;;;;;;;15.53;13.97;;;18.00;84.40;;;;;;4976926;28;20212;-65
2023/10/02 02:58:13;;;;;;;22.33;14.73;;;18.00;84.50;;;;;;4979345;28;20207;-65
2023/10/02 03:00:40;;;;;;;16.43;14.77;;;18.00;84.50;;;;;;4980997;28;20593;-65
2023/10/02 03:05:57;;;;;;;14.90;13.30;;;18.00;84.50;;;;;;4980759;28;20235;-65
2023/10/02 03:08:39;;;;;;;17.70;13.97;;;18.00;84.50;;;;;;4977642;28;20203;-65
2023/10/02 03:11:10;;;;;;;17.30;14.20;;;17.90;84.60;;;;;;4982094;28;20203;-65
2023/10/02 03:13:40;;;;;;;19.93;14.40;;;17.90;84.70;;;;;;4978786;28;20626;-64
2023/10/02 03:16:12;;;;;;;15.73;14.17;;;17.90;84.70;;;;;;4983114;28;20642;-64
2023/10/02 03:18:43;;;;;;;17.67;15.87;;;17.90;84.70;;;;;;4981054;28;20289;-64
2023/10/02 03:21:23;;;;;;;16.47;14.63;;;17.90;84.70;;;;;;4989486;28;20212;-64
2023/10/02 03:23:59;;;;;;;16.60;13.30;;;17.90;84.80;;;;;;4980856;28;20255;-64
2023/10/02 03:29:06;;;;;;;18.77;14.73;;;17.80;84.90;;;;;;4974251;28;20207;-65
2023/10/02 03:31:49;;;;;;;16.17;14.10;;;17.80;85.00;;;;;;4980193;28;20200;-64
2023/10/02 03:34:27;;;;;;;16.77;14.63;;;17.80;85.20;;;;;;4974885;28;20520;-65
2023/10/02 03:39:52;;;;;;;17.80;14.47;;;17.80;85.20;;;;;;4980664;28;20645;-64
2023/10/02 03:42:22;;;;;;;16.50;14.20;;;17.80;85.30;;;;;;4984985;28;20208;-65
2023/10/02 03:44:56;;;;;;;18.43;15.03;;;17.80;85.30;;;;;;4979569;28;20553;-64
2023/10/02 03:47:26;;;;;;;18.40;15.43;;;17.80;85.40;;;;;;4979097;28;20210;-64
2023/10/02 03:50:00;;;;;;;16.93;15.27;;;17.70;85.90;;;;;;4975759;28;20195;-65
2023/10/02 03:52:30;;;;;;;16.90;15.07;;;17.70;85.30;;;;;;4983250;28;20209;-64
2023/10/02 03:55:10;;;;;;;17.40;15.57;;;17.70;85.40;;;;;;4979931;28;20202;-65
2023/10/02 03:57:42;;;;;;;17.23;14.90;;;17.70;85.60;;;;;;4981304;28;20645;-64
2023/10/02 04:00:19;;;;;;;20.03;15.93;;;17.60;85.60;;;;;;4980072;28;20209;-65
2023/10/02 04:02:51;;;;;;;17.50;15.60;;;17.60;85.70;;;;;;4976917;28;20226;-65
2023/10/02 04:05:31;;;;;;;19.87;15.83;;;17.60;85.80;;;;;;4995316;28;20352;-64
2023/10/02 04:08:12;;;;;;;18.60;16.07;;;17.60;85.80;;;;;;4994316;28;20208;-64
2023/10/02 04:10:57;;;;;;;21.77;17.20;;;17.60;85.90;;;;;;4986445;28;20265;-64
2023/10/02 04:13:38;;;;;;;21.77;16.83;;;17.50;85.90;;;;;;4982740;28;20195;-64
2023/10/02 04:19:02;;;;;;;18.33;16.37;;;17.50;86.10;;;;;;4976214;28;20634;-64
2023/10/02 04:21:33;;;;;;;17.13;15.20;;;17.50;86.10;;;;;;4977494;28;20239;-64
2023/10/02 04:24:00;;;;;;;18.77;16.47;;;17.50;86.30;;;;;;4978625;28;20210;-65
2023/10/02 04:26:33;;;;;;;18.03;16.17;;;17.40;86.30;;;;;;4983539;28;20204;-65
2023/10/02 04:32:24;;;;;;;19.57;15.27;;;17.40;86.30;;;;;;4922335;29;20224;-65
2023/10/02 04:34:57;;;;;;;23.27;17.43;;;17.40;86.30;;;;;;4973878;28;20242;-65
2023/10/02 04:37:24;;;;;;;17.77;15.93;;;17.40;86.50;;;;;;4976123;28;20250;-65
2023/10/02 04:40:13;;;;;;;17.07;15.07;;;17.30;86.50;;;;;;4980045;28;20259;-65
2023/10/02 04:43:09;;;;;;;19.50;17.47;;;17.30;86.70;;;;;;4983212;28;20205;-64
2023/10/02 04:45:36;;;;;;;17.30;15.60;;;17.30;86.70;;;;;;4981446;28;20202;-64
2023/10/02 04:48:09;;;;;;;21.07;15.87;;;17.30;86.70;;;;;;4979235;28;20328;-65
2023/10/02 04:50:47;;;;;;;20.13;16.77;;;17.30;86.70;;;;;;4973952;28;20221;-65
2023/10/02 04:55:42;;;;;;;20.23;17.27;;;17.30;86.80;;;;;;4977810;28;20235;-65
2023/10/02 05:03:32;;;;;;;18.83;16.50;;;17.20;87.00;;;;;;4983312;28;20661;-65
2023/10/02 05:06:00;;;;;;;17.03;15.30;;;17.20;87.00;;;;;;4974583;28;20269;-65
2023/10/02 05:08:34;;;;;;;16.57;14.73;;;17.20;87.10;;;;;;4975182;28;20229;-65
2023/10/02 05:11:08;;;;;;;18.27;16.03;;;17.20;87.20;;;;;;4979447;28;20233;-65
2023/10/02 05:16:32;;;;;;;19.50;15.70;;;17.20;87.00;;;;;;4979873;28;20210;-65
2023/10/02 05:19:04;;;;;;;25.13;16.43;;;17.20;86.90;;;;;;4993046;28;20578;-64
2023/10/02 05:21:50;;;;;;;19.50;17.17;;;17.20;86.90;;;;;;4983033;28;20264;-65
2023/10/02 05:24:19;;;;;;;19.60;17.50;;;17.20;86.90;;;;;;5000556;28;20194;-65
2023/10/02 05:26:46;;;;;;;18.27;16.27;;;17.20;87.00;;;;;;4986253;28;20216;-65
2023/10/02 05:29:36;;;;;;;22.67;15.53;;;17.20;87.20;;;;;;4981091;28;20628;-65
2023/10/02 05:37:42;;;;;;;16.23;13.20;;;17.20;87.40;;;;;;4982687;28;20248;-65
2023/10/02 05:43:09;;;;;;;16.80;14.93;;;17.30;87.50;;;;;;4988089;28;20259;-65
2023/10/02 05:50:58;;;;;;;15.80;12.83;;;17.70;86.40;;;;;;4978858;28;20203;-64
2023/10/02 05:53:29;;;;;;;14.77;13.33;;;17.80;86.20;;;;;;4978440;28;20205;-65
2023/10/02 05:56:14;;;;;;;20.60;14.80;;;17.80;86.20;;;;;;4983379;28;20227;-64
2023/10/02 05:58:42;;;;;;;17.17;13.63;;;17.80;86.10;;;;;;4981587;28;20201;-64
2023/10/02 06:01:23;;;;;;;16.37;14.30;;;17.80;86.20;;;;;;4982232;28;20273;-64
2023/10/02 06:03:57;;;;;;;16.70;13.43;;;17.90;86.20;;;;;;4976941;28;20239;-64
2023/10/02 06:06:27;;;;;;;16.47;12.87;;;17.90;86.20;;;;;;4979013;28;20201;-64
2023/10/02 06:09:03;;;;;;;16.57;12.63;;;18.00;86.30;;;;;;4982030;28;20206;-65
2023/10/02 06:11:33;;;;;;;13.90;12.50;;;18.00;86.40;;;;;;4983491;28;20195;-65
2023/10/02 06:14:11;;;;;;;15.40;13.67;;;18.10;86.20;;;;;;4982924;28;20207;-65
2023/10/02 06:16:40;;;;;;;19.83;13.23;;;18.20;86.10;;;;;;4981437;28;20294;-64
2023/10/02 06:19:14;;;;;;;19.57;12.87;;;18.20;86.00;;;;;;4982745;28;20552;-65
2023/10/02 06:24:27;;;;;;;16.63;14.70;;;18.30;86.30;;;;;;4983240;28;20229;-64
2023/10/02 06:27:04;;;;;;;21.83;14.50;;;18.40;86.10;;;;;;4985713;28;20630;-64
2023/10/02 06:29:35;;;;;;;16.53;13.57;;;18.50;85.90;;;;;;4985486;28;20220;-63
2023/10/02 06:32:09;;;;;;;17.27;12.83;;;18.50;85.70;;;;;;4981015;28;20662;-63
2023/10/02 06:34:39;;;;;;;14.40;12.23;;;18.60;85.60;;;;;;4981991;28;20291;-63
2023/10/02 06:37:25;;;;;;;16.57;12.40;;;18.60;85.50;;;;;;4976158;28;20254;-64
2023/10/02 06:40:06;;;;;;;14.63;12.47;;;18.70;85.50;;;;;;4978941;28;20228;-65
2023/10/02 06:42:33;;;;;;;14.43;12.87;;;18.70;85.50;;;;;;4987181;28;20194;-64
2023/10/02 06:45:05;;;;;;;15.30;12.67;;;18.80;85.60;;;;;;4983600;28;20204;-64
2023/10/02 06:47:34;;;;;;;13.70;12.40;;;18.80;85.60;;;;;;4980202;28;20227;-64
2023/10/02 06:50:21;;;;;;;15.80;13.33;;;18.90;85.70;;;;;;4977027;28;20204;-63
2023/10/02 06:52:49;;;;;;;18.23;13.80;;;18.90;85.80;;;;;;4980832;28;20512;-64
2023/10/02 06:55:21;;;;;;;21.60;16.10;;;19.00;85.80;;;;;;4977968;28;20196;-64
2023/10/02 06:57:52;;;;;;;23.70;15.80;;;19.10;85.70;;;;;;4978682;28;20300;-64
2023/10/02 07:00:21;;;;;;;17.73;15.93;;;19.20;85.60;;;;;;4983582;28;20203;-66
2023/10/02 07:02:57;;;;;;;17.00;15.10;;;19.30;85.20;;;;;;4981567;28;20203;-65
2023/10/02 07:05:32;;;;;;;18.47;15.23;;;19.30;85.00;;;;;;4975255;28;20214;-64
2023/10/02 07:08:17;;;;;;;17.77;14.73;;;19.40;84.90;;;;;;4973903;28;20219;-64
2023/10/02 07:10:47;;;;;;;26.03;15.93;;;19.50;84.70;;;;;;4979775;28;20203;-64
2023/10/02 07:13:24;;;;;;;16.77;15.10;;;19.60;84.40;;;;;;4980030;28;20700;-65
2023/10/02 07:15:57;;;;;;;17.07;15.33;;;19.70;84.20;;;;;;4983400;28;20203;-65
2023/10/02 07:18:35;;;;;;;19.20;14.97;;;19.80;84.10;;;;;;4989381;28;20211;-65
2023/10/02 07:21:07;;;;;;;20.43;16.10;;;19.90;83.40;;;;;;4989587;28;20203;-64
2023/10/02 07:23:37;;;;;;;22.37;15.77;;;20.10;83.30;;;;;;4978097;28;20859;-64
2023/10/02 07:26:13;;;;;;;18.87;14.53;;;20.20;83.30;;;;;;4978316;28;20254;-65
2023/10/02 07:28:52;;;;;;;21.63;14.53;;;20.30;83.00;;;;;;4981669;28;20219;-66
2023/10/02 07:31:21;;;;;;;16.83;13.50;;;20.50;82.60;;;;;;4982807;28;20529;-65
2023/10/02 07:33:49;;;;;;;16.63;14.00;;;20.60;82.00;;;;;;4985027;28;20210;-65
2023/10/02 07:36:16;;;;;;;25.40;14.13;;;20.90;81.40;;;;;;4977111;28;20275;-65
2023/10/02 07:38:46;;;;;;;18.40;13.67;;;21.00;80.70;;;;;;4974570;28;20211;-64
2023/10/02 07:41:23;;;;;;;21.27;14.80;;;21.20;80.40;;;;;;4976578;28;20598;-64
2023/10/02 07:43:53;;;;;;;15.87;13.13;;;21.40;79.70;;;;;;4974505;28;20315;-64
2023/10/02 07:46:22;;;;;;;27.70;14.50;;;21.60;78.70;;;;;;4982798;28;20595;-64
2023/10/02 07:49:00;;;;;;;17.60;13.03;;;21.80;77.70;;;;;;4978332;28;20220;-65
2023/10/02 07:51:35;;;;;;;15.20;12.40;;;22.00;76.90;;;;;;4982391;28;20255;-64
2023/10/02 07:54:06;;;;;;;13.63;12.33;;;22.20;76.50;;;;;;4972248;28;20215;-64
2023/10/02 07:56:35;;;;;;;13.83;12.23;;;22.40;75.70;;;;;;4986681;28;20201;-64
2023/10/02 07:59:07;;;;;;;19.70;13.77;;;22.60;74.90;;;;;;4982732;28;20243;-65
2023/10/02 08:01:36;;;;;;;15.97;14.40;;;22.80;74.00;;;;;;4986274;28;20197;-66
2023/10/02 08:04:03;;;;;;;16.20;14.50;;;23.00;73.00;;;;;;4984911;28;20200;-65
2023/10/02 08:06:33;;;;;;;15.10;13.50;;;23.20;72.20;;;;;;4979399;28;20651;-65
2023/10/02 08:11:50;;;;;;;22.67;14.43;;;23.50;71.30;;;;;;4979306;28;20216;-65
2023/10/02 08:17:18;;;;;;;25.30;15.07;;;23.90;70.00;;;;;;4981520;28;20202;-65
2023/10/02 08:20:15;;;;;;;18.33;15.43;;;24.10;69.50;;;;;;4982412;28;20239;-65
2023/10/02 08:22:48;;;;;;;23.20;15.30;;;24.30;69.10;;;;;;4984391;28;20235;-66
2023/10/02 08:25:16;;;;;;;20.73;16.80;;;24.40;68.70;;;;;;4981559;28;20212;-65
2023/10/02 08:27:46;;;;;;;28.40;18.07;;;24.60;68.40;;;;;;4978246;28;20222;-65
2023/10/02 08:30:27;;;;;;;21.63;16.03;;;24.70;67.80;;;;;;4982437;28;20207;-65
2023/10/02 08:33:05;;;;;;;23.40;18.70;;;24.80;67.40;;;;;;4977131;28;20578;-65
2023/10/02 08:35:47;;;;;;;26.67;18.00;;;25.00;66.90;;;;;;4978621;28;20286;-65
2023/10/02 08:38:24;;;;;;;18.97;16.97;;;25.10;66.60;;;;;;4975859;28;20304;-65
2023/10/02 08:40:59;;;;;;;25.93;17.23;;;25.20;66.10;;;;;;4978673;28;20201;-65
2023/10/02 08:43:27;;;;;;;28.87;16.57;;;25.40;65.60;;;;;;4978894;28;20226;-65
2023/10/02 08:45:55;;;;;;;22.13;17.23;;;25.50;65.20;;;;;;4977353;28;20208;-65
2023/10/02 08:48:25;;;;;;;32.87;18.03;;;25.60;64.90;;;;;;4976360;28;20249;-66
2023/10/02 08:50:58;;;;;;;21.67;17.73;;;25.60;64.70;;;;;;4981321;28;20208;-65
2023/10/02 08:53:26;;;;;;;22.97;17.93;;;25.70;64.50;;;;;;4976950;28;20200;-65
2023/10/02 08:56:11;;;;;;;25.27;18.17;;;25.90;64.30;;;;;;4979753;28;20210;-65
2023/10/02 08:58:38;;;;;;;24.60;17.60;;;25.90;63.50;;;;;;4981039;28;20301;-65
2023/10/02 09:06:44;;;;;;;25.47;19.80;;;26.20;61.90;;;;;;4979627;28;20634;-63
2023/10/02 09:09:23;;;;;;;23.73;19.87;;;26.30;62.20;;;;;;4977855;28;20687;-62
2023/10/02 09:11:52;;;;;;;24.17;18.90;;;26.30;61.90;;;;;;4977901;28;20211;-63
2023/10/02 09:14:22;;;;;;;22.83;19.33;;;26.30;61.90;;;;;;4979457;28;20196;-63
2023/10/02 09:17:23;;;;;;;23.40;20.77;;;26.40;62.00;;;;;;4978400;28;20211;-62
2023/10/02 09:20:07;;;;;;;25.53;21.87;;;26.50;61.90;;;;;;4979190;28;20203;-65
2023/10/02 09:22:37;;;;;;;24.30;21.80;;;26.60;61.10;;;;;;4976861;28;20209;-65
2023/10/02 09:25:10;;;;;;;29.13;21.53;;;26.50;61.20;;;;;;4988233;28;20536;-63
2023/10/02 09:27:52;;;;;;;23.97;21.47;;;26.50;60.70;;;;;;4981017;28;20229;-63
2023/10/02 09:33:14;;;;;;;25.23;21.00;;;26.50;60.60;;;;;;4983746;28;20265;-64
2023/10/02 09:36:00;;;;;;;23.93;21.53;;;26.60;61.10;;;;;;4977778;28;20537;-65
2023/10/02 09:38:47;;;;;;;28.77;22.63;;;26.60;60.70;;;;;;4968474;28;20225;-63
2023/10/02 09:41:15;;;;;;;26.77;20.30;;;26.60;60.30;;;;;;4976991;28;20649;-63
2023/10/02 09:43:43;;;;;;;28.00;22.50;;;26.60;60.60;;;;;;4979371;28;20193;-63
2023/10/02 09:46:20;;;;;;;23.40;20.63;;;26.60;60.20;;;;;;4981931;28;20200;-63
2023/10/02 09:49:08;;;;;;;27.73;20.43;;;26.70;60.20;;;;;;4979743;28;20581;-65
2023/10/02 09:52:09;;;;;;;24.10;21.63;;;26.80;60.30;;;;;;4981457;28;20201;-65
2023/10/02 09:54:54;;;;;;;29.80;24.00;;;26.90;60.10;;;;;;4970622;28;20652;-63
2023/10/02 09:57:29;;;;;;;26.53;23.83;;;27.00;59.90;;;;;;4976023;28;20200;-63
2023/10/02 09:59:57;;;;;;;32.43;23.63;;;27.10;59.30;;;;;;4975971;28;20203;-62
2023/10/02 10:08:17;;;;;;;28.83;22.63;;;27.30;58.90;;;;;;4982068;28;20222;-62
2023/10/02 10:10:52;;;;;;;24.13;20.27;;;27.50;58.30;;;;;;4981536;28;20283;-66
2023/10/02 10:13:32;;;;;;;20.77;18.67;;;27.60;58.20;;;;;;4980412;28;20189;-65
2023/10/02 10:16:20;;;;;;;27.03;20.93;;;27.60;57.80;;;;;;4983211;28;20279;-63
2023/10/02 10:19:26;;;;;;;21.27;17.70;;;27.70;57.40;;;;;;4984948;28;20220;-65
2023/10/02 10:22:01;;;;;;;22.50;19.03;;;27.70;56.30;;;;;;4990373;28;20647;-63
2023/10/02 10:24:35;;;;;;;22.00;19.10;;;27.80;56.60;;;;;;4981974;28;20383;-63
2023/10/02 10:27:03;;;;;;;24.37;21.37;;;27.80;56.40;;;;;;4981517;28;20216;-62
2023/10/02 10:29:41;;;;;;;23.67;20.90;;;27.90;56.70;;;;;;4981366;28;20272;-63
2023/10/02 10:32:23;;;;;;;21.03;18.80;;;27.90;56.80;;;;;;5004589;28;20216;-63
2023/10/02 10:35:14;;;;;;;20.23;18.10;;;28.00;56.40;;;;;;4985414;28;20200;-65
2023/10/02 10:37:46;;;;;;;18.97;15.47;;;28.10;56.10;;;;;;4983171;28;20256;-65
2023/10/02 10:40:50;;;;;;;22.10;17.10;;;28.20;55.50;;;;;;4981574;28;20644;-62
2023/10/02 10:43:18;;;;;;;22.47;16.43;;;28.30;55.20;;;;;;4982074;28;20259;-62
2023/10/02 10:45:48;;;;;;;18.77;14.37;;;28.30;54.30;;;;;;4987802;28;20247;-63
2023/10/02 10:48:21;;;;;;;15.90;14.10;;;28.50;54.30;;;;;;4987377;28;20271;-63
2023/10/02 10:50:59;;;;;;;22.30;17.10;;;28.60;54.50;;;;;;4980423;28;20229;-62
2023/10/02 10:53:28;;;;;;;20.90;15.27;;;28.70;54.20;;;;;;4980758;28;20192;-62
2023/10/02 10:56:16;;;;;;;19.63;13.90;;;28.80;53.90;;;;;;4978160;28;20217;-62
2023/10/02 10:58:45;;;;;;;18.90;14.77;;;28.90;53.90;;;;;;4987278;28;20201;-63
2023/10/02 11:01:16;;;;;;;15.93;13.47;;;29.00;53.80;;;;;;4981505;28;20200;-62
2023/10/02 11:03:44;;;;;;;16.23;11.37;;;29.10;53.50;;;;;;4982789;28;20204;-63
2023/10/02 11:06:11;;;;;;;11.63;10.43;;;29.20;53.00;;;;;;4983698;28;20200;-62
2023/10/02 11:08:38;;;;;;;11.90;10.17;;;29.30;52.40;;;;;;4982967;28;20342;-63
2023/10/02 11:11:11;;;;;;;12.80;9.13;;;29.30;52.00;;;;;;4978205;28;20617;-65
2023/10/02 11:14:02;;;;;;;10.13;8.43;;;29.40;50.40;;;;;;4983195;28;20260;-63
2023/10/02 11:16:43;;;;;;;10.67;7.37;;;29.40;50.60;;;;;;4974554;28;20259;-63
2023/10/02 11:22:22;;;;;;;11.50;8.87;;;29.50;49.50;;;;;;4978342;28;20222;-63
2023/10/02 11:24:55;;;;;;;10.80;9.70;;;29.50;49.70;;;;;;4980491;28;20610;-63
2023/10/02 11:27:24;;;;;;;11.23;9.73;;;29.50;49.10;;;;;;4975001;28;20205;-63
2023/10/02 11:30:01;;;;;;;8.53;7.63;;;29.60;48.90;;;;;;4987202;28;20221;-63
2023/10/02 11:32:58;;;;;;;7.27;6.23;;;29.50;49.20;;;;;;4979130;28;20283;-63
2023/10/02 11:35:28;;;;;;;12.00;7.80;;;29.60;49.60;;;;;;4979070;28;20212;-63
2023/10/02 11:37:57;;;;;;;10.93;7.20;;;29.70;49.60;;;;;;4981244;28;20237;-63
2023/10/02 11:40:25;;;;;;;8.93;6.23;;;29.80;49.50;;;;;;4979991;28;20209;-63
2023/10/02 11:42:52;;;;;;;8.50;6.20;;;29.90;49.40;;;;;;4980915;28;20236;-63
2023/10/02 11:45:20;;;;;;;14.07;6.83;;;29.90;49.20;;;;;;4979928;28;20739;-62
2023/10/02 11:47:47;;;;;;;10.23;6.73;;;30.00;49.30;;;;;;4984954;28;20232;-63
2023/10/02 11:50:16;;;;;;;8.70;6.27;;;30.00;49.50;;;;;;4983658;28;20231;-62
2023/10/02 11:52:44;;;;;;;11.27;6.17;;;30.10;49.40;;;;;;4979253;28;20197;-63
2023/10/02 11:55:11;;;;;;;13.07;7.83;;;30.10;49.20;;;;;;4978563;28;20245;-63
2023/10/02 11:57:38;;;;;;;11.47;8.20;;;30.10;48.90;;;;;;4976908;28;20530;-63
2023/10/02 12:00:08;;;;;;;9.23;6.10;;;30.10;48.50;;;;;;4980288;28;20217;-63
2023/10/02 12:02:38;;;;;;;8.27;5.87;;;30.10;49.00;;;;;;4982237;28;20202;-62
2023/10/02 12:05:07;;;;;;;7.13;5.20;;;30.10;49.20;;;;;;4981306;28;20264;-62
2023/10/02 12:07:35;;;;;;;6.13;5.33;;;30.10;48.70;;;;;;4982933;28;20319;-64
2023/10/02 12:10:02;;;;;;;5.90;4.90;;;30.20;48.10;;;;;;4975296;28;20724;-64
2023/10/02 12:12:30;;;;;;;6.60;4.63;;;30.20;46.40;;;;;;4974725;28;20264;-63
2023/10/02 12:14:57;;;;;;;9.20;4.93;;;30.30;45.80;;;;;;4977794;28;20256;-62
2023/10/02 12:17:24;;;;;;;8.47;4.83;;;30.30;46.20;;;;;;4979492;28;20267;-62
2023/10/02 12:19:51;;;;;;;5.13;4.63;;;30.30;46.70;;;;;;4982251;28;20212;-62
2023/10/02 12:22:19;;;;;;;13.10;5.17;;;30.40;46.90;;;;;;4987657;28;20203;-62
2023/10/02 12:24:46;;;;;;;5.80;4.70;;;30.40;46.70;;;;;;4981878;28;20209;-63
2023/10/02 12:27:16;;;;;;;12.47;5.37;;;30.40;46.50;;;;;;4976672;28;20540;-62
2023/10/02 12:29:43;;;;;;;7.00;4.63;;;30.50;46.50;;;;;;4975430;28;20220;-63
2023/10/02 12:32:10;;;;;;;8.00;4.23;;;30.50;46.50;;;;;;4978521;28;20208;-63
2023/10/02 12:34:38;;;;;;;6.60;4.77;;;30.50;46.80;;;;;;4978735;28;20193;-63
2023/10/02 12:37:06;;;;;;;6.20;4.77;;;30.60;47.10;;;;;;4984549;28;20247;-62
2023/10/02 12:39:33;;;;;;;6.80;4.63;;;30.60;46.30;;;;;;4981987;28;20211;-62
2023/10/02 12:42:00;;;;;;;6.70;4.87;;;30.60;46.20;;;;;;4979613;28;20537;-62
2023/10/02 12:44:30;;;;;;;4.73;4.30;;;30.50;46.50;;;;;;4976098;28;20280;-64
2023/10/02 12:46:58;;;;;;;5.40;4.60;;;30.50;46.50;;;;;;4978341;28;20204;-62
2023/10/02 12:49:25;;;;;;;8.00;5.07;;;30.50;46.50;;;;;;4981624;28;20230;-63
2023/10/02 12:51:52;;;;;;;7.13;5.00;;;30.50;46.60;;;;;;4983241;28;20201;-63
2023/10/02 12:54:20;;;;;;;8.17;5.70;;;30.50;46.60;;;;;;4984111;28;20209;-63
2023/10/02 12:56:47;;;;;;;5.83;4.93;;;30.40;47.00;;;;;;4986673;28;20252;-63
2023/10/02 12:59:15;;;;;;;6.23;5.23;;;30.40;47.00;;;;;;4975941;28;20312;-63
2023/10/02 13:01:44;;;;;;;5.73;5.13;;;30.40;47.30;;;;;;4973616;28;20679;-63
2023/10/02 13:04:14;;;;;;;7.53;4.63;;;30.30;46.70;;;;;;4987498;28;20651;-63
2023/10/02 13:06:44;;;;;;;7.03;4.73;;;30.20;46.60;;;;;;4984216;28;20212;-62
2023/10/02 13:09:14;;;;;;;8.87;5.40;;;30.10;46.90;;;;;;4980197;28;20237;-62
2023/10/02 13:11:44;;;;;;;6.67;5.10;;;30.10;47.20;;;;;;4979639;28;20212;-62
2023/10/02 13:14:18;;;;;;;9.47;5.00;;;30.10;47.20;;;;;;4978532;28;20568;-63
2023/10/02 13:16:48;;;;;;;5.50;4.83;;;30.10;47.40;;;;;;4988598;28;20254;-64
2023/10/02 13:19:16;;;;;;;9.20;4.30;;;30.10;47.40;;;;;;4986801;28;20205;-62
2023/10/02 13:21:45;;;;;;;9.53;4.30;;;30.10;47.40;;;;;;4984504;28;20209;-61
2023/10/02 13:24:15;;;;;;;7.40;4.90;;;30.10;47.30;;;;;;4978903;28;20218;-63
2023/10/02 13:26:44;;;;;;;8.67;4.53;;;30.20;46.80;;;;;;4981165;28;20304;-63
2023/10/02 13:29:11;;;;;;;9.17;4.27;;;30.10;46.60;;;;;;4977896;28;20217;-64
2023/10/02 13:31:38;;;;;;;6.57;4.07;;;30.20;46.60;;;;;;4982337;28;20302;-62
2023/10/02 13:34:06;;;;;;;5.47;4.67;;;30.10;46.70;;;;;;4983361;28;20200;-63
2023/10/02 13:36:34;;;;;;;7.33;4.50;;;30.10;46.10;;;;;;4983025;28;20240;-63
2023/10/02 13:39:05;;;;;;;6.33;4.30;;;30.10;46.10;;;;;;4983878;28;20284;-63
2023/10/02 13:41:34;;;;;;;7.83;4.20;;;30.00;46.30;;;;;;4978033;28;20212;-64
2023/10/02 13:44:03;;;;;;;5.47;3.80;;;29.90;46.70;;;;;;4979325;28;20232;-63
2023/10/02 13:46:34;;;;;;;12.23;4.83;;;29.90;46.80;;;;;;4984408;28;20577;-63
2023/10/02 13:49:02;;;;;;;4.70;3.67;;;29.90;46.10;;;;;;4984715;28;20321;-64
2023/10/02 13:51:29;;;;;;;5.57;3.63;;;29.80;46.40;;;;;;4982899;28;20225;-61
2023/10/02 13:53:57;;;;;;;5.50;4.27;;;29.80;47.00;;;;;;4984403;28;20215;-62
2023/10/02 13:56:32;;;;;;;7.50;3.47;;;29.80;47.00;;;;;;4982492;28;20205;-63
2023/10/02 13:59:00;;;;;;;8.73;4.53;;;29.80;46.40;;;;;;4979783;28;20205;-63
2023/10/02 14:01:30;;;;;;;23.27;5.17;;;29.70;46.10;;;;;;4982523;28;20279;-63
2023/10/02 14:03:58;;;;;;;7.30;4.17;;;29.70;46.60;;;;;;4986113;28;20488;-63
2023/10/02 14:06:28;;;;;;;8.80;3.80;;;29.70;46.90;;;;;;4983761;28;20204;-62
2023/10/02 14:08:56;;;;;;;9.47;4.57;;;29.70;46.90;;;;;;4985743;28;20639;-64
2023/10/02 14:11:25;;;;;;;4.17;3.70;;;29.70;47.00;;;;;;4980768;28;20550;-61
2023/10/02 14:14:00;;;;;;;7.90;3.87;;;29.70;46.70;;;;;;4982026;28;20567;-62
2023/10/02 14:16:28;;;;;;;7.73;3.90;;;29.70;46.10;;;;;;4980229;28;20644;-62